Time;durP1;ratioP1;P1;durP2;ratioP2;P2;SDS_P1;SDS_P2;PMS_P1;PMS_P2;Temp;Humidity;BMP_temperature;BMP_pressure;BME280_temperature;BME280_humidity;BME280_pressure;Samples;Min_cycle;Max_cycle;Signal;HPM_P1;HPM_P2
2022/09/26 00:01:38;;;;;;;0.45;0.43;;;11.60;85.40;;;;;;4897612;29;20128;-75
2022/09/26 00:04:16;;;;;;;0.40;0.40;;;11.60;85.40;;;;;;4897397;29;20029;-75
2022/09/26 00:06:42;;;;;;;0.40;0.40;;;11.60;85.40;;;;;;4874254;29;20500;-75
2022/09/26 00:09:08;;;;;;;0.40;0.40;;;11.60;85.40;;;;;;4897642;29;20063;-75
2022/09/26 00:11:34;;;;;;;0.90;0.63;;;11.50;85.40;;;;;;4881081;29;20048;-75
2022/09/26 00:14:04;;;;;;;1.00;0.60;;;11.60;85.40;;;;;;4897654;29;20094;-75
2022/09/26 00:16:30;;;;;;;0.40;0.40;;;11.60;85.50;;;;;;4897357;29;20464;-75
2022/09/26 00:18:58;;;;;;;0.55;0.50;;;11.60;85.50;;;;;;4897180;29;20189;-75
2022/09/26 00:21:26;;;;;;;0.47;0.40;;;11.60;85.60;;;;;;4897174;29;20028;-75
2022/09/26 00:23:53;;;;;;;0.40;0.40;;;11.70;85.70;;;;;;4897315;29;20398;-75
2022/09/26 00:26:21;;;;;;;0.60;0.50;;;11.60;85.60;;;;;;4865380;29;20033;-75
2022/09/26 00:28:47;;;;;;;0.60;0.60;;;11.60;85.60;;;;;;4878549;29;20032;-75
2022/09/26 00:31:17;;;;;;;0.50;0.50;;;11.60;85.60;;;;;;4897497;29;20036;-72
2022/09/26 00:33:43;;;;;;;0.63;0.50;;;11.60;85.50;;;;;;4897219;29;20039;-75
2022/09/26 00:36:10;;;;;;;0.95;0.75;;;11.60;85.50;;;;;;4849484;29;20057;-75
2022/09/26 00:38:36;;;;;;;1.20;0.70;;;11.60;85.50;;;;;;4896894;29;20037;-75
2022/09/26 00:41:03;;;;;;;1.05;0.65;;;11.70;85.50;;;;;;4896849;29;20476;-75
2022/09/26 00:43:33;;;;;;;1.45;0.60;;;11.70;85.40;;;;;;4897301;29;20037;-75
2022/09/26 00:46:12;;;;;;;0.50;0.50;;;11.70;85.30;;;;;;4880061;29;20033;-75
2022/09/26 00:48:40;;;;;;;0.75;0.65;;;11.80;85.30;;;;;;4897053;29;20048;-75
2022/09/26 00:51:07;;;;;;;0.60;0.60;;;11.80;85.30;;;;;;4896737;29;20479;-72
2022/09/26 00:53:38;;;;;;;0.77;0.52;;;11.80;85.20;;;;;;4897046;29;20049;-75
2022/09/26 00:56:09;;;;;;;0.50;0.50;;;11.80;85.20;;;;;;4897031;29;20377;-72
2022/09/26 00:58:41;;;;;;;0.73;0.40;;;11.80;85.20;;;;;;4896636;29;20032;-75
2022/09/26 01:01:08;;;;;;;0.98;0.60;;;11.80;85.20;;;;;;4897069;29;20037;-74
2022/09/26 01:03:36;;;;;;;0.50;0.50;;;11.80;85.20;;;;;;4897068;29;20064;-74
2022/09/26 01:06:02;;;;;;;1.40;0.47;;;11.80;85.20;;;;;;4896819;29;20123;-74
2022/09/26 01:08:35;;;;;;;0.95;0.60;;;11.90;85.20;;;;;;4897103;29;20041;-74
2022/09/26 01:11:02;;;;;;;0.50;0.50;;;11.90;85.20;;;;;;4896898;29;20494;-75
2022/09/26 01:13:31;;;;;;;0.50;0.50;;;11.90;85.10;;;;;;4896623;29;20044;-74
2022/09/26 01:15:57;;;;;;;0.60;0.60;;;11.90;85.20;;;;;;4896747;29;20951;-74
2022/09/26 01:18:23;;;;;;;1.10;0.55;;;11.80;85.20;;;;;;4896749;29;20128;-75
2022/09/26 01:21:23;;;;;;;0.40;0.40;;;11.90;85.30;;;;;;4868158;29;20044;-74
2022/09/26 01:24:19;;;;;;;0.30;0.30;;;11.80;85.40;;;;;;4863562;29;20041;-73
2022/09/26 01:27:08;;;;;;;0.40;0.40;;;11.80;85.50;;;;;;4896254;29;20037;-73
2022/09/26 01:30:09;;;;;;;0.30;0.30;;;11.80;86.30;;;;;;4896856;29;20379;-73
2022/09/26 01:33:12;;;;;;;0.30;0.30;;;11.70;85.70;;;;;;4896701;29;20048;-73
2022/09/26 01:36:12;;;;;;;0.40;0.30;;;11.80;85.80;;;;;;4882038;29;20044;-73
2022/09/26 01:39:01;;;;;;;0.55;0.45;;;11.80;85.80;;;;;;4864502;29;20132;-73
2022/09/26 01:41:57;;;;;;;0.43;0.43;;;11.80;85.90;;;;;;4896095;29;20119;-73
2022/09/26 01:44:42;;;;;;;0.70;0.70;;;11.70;85.90;;;;;;4883151;29;20077;-73
2022/09/26 01:47:16;;;;;;;0.70;0.70;;;11.70;86.00;;;;;;4895902;29;20391;-75
2022/09/26 01:50:14;;;;;;;0.60;0.50;;;11.70;85.90;;;;;;4896193;29;20032;-72
2022/09/26 01:52:49;;;;;;;0.88;0.57;;;11.70;85.90;;;;;;4870521;29;20519;-73
2022/09/26 01:55:39;;;;;;;0.43;0.40;;;11.70;85.90;;;;;;4895539;29;20045;-73
2022/09/26 01:58:13;;;;;;;0.63;0.60;;;11.80;86.00;;;;;;4895897;29;20124;-73
2022/09/26 02:00:42;;;;;;;1.00;0.75;;;11.70;85.80;;;;;;4895585;29;20041;-72
2022/09/26 02:03:14;;;;;;;0.70;0.50;;;11.80;85.90;;;;;;4879039;29;20049;-73
2022/09/26 02:05:47;;;;;;;1.33;0.60;;;11.80;85.80;;;;;;4863288;29;20033;-73
2022/09/26 02:08:17;;;;;;;0.93;0.60;;;11.80;85.80;;;;;;4895500;29;20130;-73
2022/09/26 02:10:58;;;;;;;0.63;0.50;;;11.80;85.80;;;;;;4895506;29;20051;-73
2022/09/26 02:13:32;;;;;;;0.65;0.55;;;11.70;85.80;;;;;;4895899;29;20460;-73
2022/09/26 02:16:06;;;;;;;1.48;0.70;;;11.70;85.80;;;;;;4895966;29;20396;-73
2022/09/26 02:18:37;;;;;;;1.10;0.80;;;11.80;85.80;;;;;;4896017;29;20388;-73
2022/09/26 02:21:12;;;;;;;0.60;0.60;;;11.80;85.70;;;;;;4895516;29;20040;-73
2022/09/26 02:23:37;;;;;;;1.17;0.75;;;11.80;85.70;;;;;;4867582;29;20115;-73
2022/09/26 02:26:03;;;;;;;0.70;0.70;;;11.80;85.60;;;;;;4895329;29;20073;-73
2022/09/26 02:28:30;;;;;;;0.50;0.50;;;11.80;85.60;;;;;;4896134;29;20033;-73
2022/09/26 02:30:59;;;;;;;1.73;0.77;;;11.80;85.60;;;;;;4899250;29;20037;-73
2022/09/26 02:33:27;;;;;;;1.48;0.60;;;11.80;85.60;;;;;;4882234;29;20040;-73
2022/09/26 02:35:53;;;;;;;0.70;0.70;;;11.80;85.60;;;;;;4898628;29;20055;-73
2022/09/26 02:38:22;;;;;;;2.70;0.70;;;11.80;85.60;;;;;;4898995;29;20041;-73
2022/09/26 02:41:21;;;;;;;1.42;0.70;;;11.90;85.60;;;;;;4882406;29;20480;-73
2022/09/26 02:44:09;;;;;;;0.75;0.60;;;11.70;85.50;;;;;;4898567;29;20033;-73
2022/09/26 02:47:00;;;;;;;1.15;0.60;;;11.80;85.40;;;;;;4899122;29;20135;-73
2022/09/26 02:49:50;;;;;;;0.98;0.57;;;11.80;85.40;;;;;;4898730;29;21037;-73
2022/09/26 02:52:44;;;;;;;0.98;0.77;;;11.80;85.40;;;;;;4898776;29;20115;-73
2022/09/26 02:55:25;;;;;;;2.03;0.98;;;11.90;85.40;;;;;;4885629;29;20152;-73
2022/09/26 02:58:16;;;;;;;1.20;0.80;;;11.80;85.30;;;;;;4879678;29;20045;-73
2022/09/26 03:01:00;;;;;;;0.73;0.60;;;11.90;85.20;;;;;;4899030;29;20311;-73
2022/09/26 03:03:39;;;;;;;1.35;0.88;;;11.80;85.10;;;;;;4898326;29;20039;-73
2022/09/26 03:06:08;;;;;;;1.02;0.60;;;11.80;85.10;;;;;;4881716;29;20033;-73
2022/09/26 03:08:40;;;;;;;0.95;0.60;;;11.90;85.10;;;;;;4867028;29;20055;-73
2022/09/26 03:11:09;;;;;;;1.13;0.60;;;11.90;85.10;;;;;;4879565;29;20047;-73
2022/09/26 03:13:37;;;;;;;0.60;0.60;;;11.90;85.10;;;;;;4898362;29;20483;-73
2022/09/26 03:16:05;;;;;;;0.88;0.70;;;11.90;85.10;;;;;;4898023;29;20556;-73
2022/09/26 03:18:38;;;;;;;1.25;0.73;;;11.80;85.10;;;;;;4898232;29;20081;-73
2022/09/26 03:21:04;;;;;;;1.27;0.60;;;11.80;85.10;;;;;;4898183;29;20036;-73
2022/09/26 03:23:30;;;;;;;1.40;0.50;;;11.90;85.30;;;;;;4898584;29;20441;-73
2022/09/26 03:26:00;;;;;;;0.80;0.60;;;11.80;85.30;;;;;;4898087;29;20124;-73
2022/09/26 03:28:26;;;;;;;0.47;0.47;;;11.70;85.30;;;;;;4898031;29;20398;-73
2022/09/26 03:30:52;;;;;;;0.45;0.45;;;11.70;86.00;;;;;;4898243;29;20036;-73
2022/09/26 03:33:18;;;;;;;0.93;0.60;;;11.70;85.40;;;;;;4864717;29;20041;-73
2022/09/26 03:35:44;;;;;;;0.80;0.75;;;11.80;85.60;;;;;;4897677;29;20052;-73
2022/09/26 03:38:09;;;;;;;1.70;0.43;;;11.80;85.60;;;;;;4897815;29;20052;-73
2022/09/26 03:40:35;;;;;;;0.60;0.60;;;11.60;85.60;;;;;;4879770;29;20041;-73
2022/09/26 03:43:01;;;;;;;1.02;0.70;;;11.60;85.60;;;;;;4898377;29;20491;-73
2022/09/26 03:45:27;;;;;;;0.40;0.40;;;11.60;85.60;;;;;;4898273;29;20037;-74
2022/09/26 03:47:56;;;;;;;0.70;0.50;;;11.70;85.70;;;;;;4881406;29;20094;-74
2022/09/26 03:50:22;;;;;;;0.50;0.50;;;11.60;85.80;;;;;;4897818;29;20380;-74
2022/09/26 03:52:47;;;;;;;0.50;0.50;;;11.60;85.80;;;;;;4898071;29;20199;-74
2022/09/26 03:55:13;;;;;;;0.85;0.50;;;11.60;85.80;;;;;;4880751;29;20045;-74
2022/09/26 03:57:39;;;;;;;0.60;0.60;;;11.50;85.80;;;;;;4898007;29;20044;-74
2022/09/26 04:00:06;;;;;;;0.98;0.55;;;11.50;85.80;;;;;;4897474;29;20128;-74
2022/09/26 04:02:33;;;;;;;0.57;0.57;;;11.50;85.90;;;;;;4897668;29;20036;-74
2022/09/26 04:04:59;;;;;;;0.60;0.50;;;11.50;86.00;;;;;;4897935;29;20044;-74
2022/09/26 04:07:25;;;;;;;0.85;0.65;;;11.40;85.90;;;;;;4863880;29;20112;-74
2022/09/26 04:09:51;;;;;;;1.17;0.52;;;11.40;85.90;;;;;;4869125;29;20842;-74
2022/09/26 04:12:16;;;;;;;1.30;0.35;;;11.40;85.90;;;;;;4865513;29;20055;-74
2022/09/26 04:14:42;;;;;;;0.70;0.60;;;11.40;86.00;;;;;;4897809;29;20048;-74
2022/09/26 04:17:09;;;;;;;0.55;0.38;;;11.50;86.00;;;;;;4897892;29;20395;-74
2022/09/26 04:19:35;;;;;;;1.42;0.60;;;11.40;85.90;;;;;;4897622;29;20072;-74
2022/09/26 04:22:01;;;;;;;1.98;0.57;;;11.40;85.90;;;;;;4897533;29;20063;-74
2022/09/26 04:24:26;;;;;;;0.38;0.38;;;11.40;85.90;;;;;;4898119;29;20033;-74
2022/09/26 04:26:53;;;;;;;0.40;0.40;;;11.40;85.90;;;;;;4898076;29;20371;-74
2022/09/26 04:29:19;;;;;;;1.20;0.60;;;11.40;85.90;;;;;;4874976;29;20037;-73
2022/09/26 04:31:45;;;;;;;0.55;0.43;;;11.40;85.80;;;;;;4872451;29;20033;-74
2022/09/26 04:34:11;;;;;;;0.98;0.70;;;11.40;85.80;;;;;;4864898;29;20096;-74
2022/09/26 04:36:37;;;;;;;0.52;0.50;;;11.40;85.80;;;;;;4855449;29;20048;-73
2022/09/26 04:39:04;;;;;;;0.85;0.55;;;11.40;85.70;;;;;;4880843;29;20041;-74
2022/09/26 04:41:30;;;;;;;0.95;0.63;;;11.40;85.70;;;;;;4897226;29;20858;-74
2022/09/26 04:43:58;;;;;;;0.60;0.60;;;11.40;85.60;;;;;;4897767;29;20167;-73
2022/09/26 04:46:26;;;;;;;1.05;0.60;;;11.40;85.60;;;;;;4897133;29;20052;-74
2022/09/26 04:48:55;;;;;;;0.60;0.60;;;11.40;85.50;;;;;;4896918;29;20119;-74
2022/09/26 04:51:23;;;;;;;0.70;0.50;;;11.40;85.50;;;;;;4880164;29;20131;-74
2022/09/26 04:53:50;;;;;;;0.95;0.65;;;11.40;85.40;;;;;;4880074;29;20380;-74
2022/09/26 04:56:19;;;;;;;2.08;0.88;;;11.40;85.40;;;;;;4897317;29;20048;-74
2022/09/26 04:58:45;;;;;;;1.38;0.60;;;11.40;85.30;;;;;;4897402;29;20040;-74
2022/09/26 05:01:14;;;;;;;0.90;0.63;;;11.40;85.30;;;;;;4896797;29;20045;-74
2022/09/26 05:03:40;;;;;;;1.35;0.80;;;11.40;85.20;;;;;;4896779;29;20056;-75
2022/09/26 05:06:08;;;;;;;1.17;0.60;;;11.50;85.30;;;;;;4878021;29;20048;-75
2022/09/26 05:08:35;;;;;;;1.30;0.70;;;11.50;85.20;;;;;;4897076;29;20044;-75
2022/09/26 05:11:01;;;;;;;1.33;0.80;;;11.40;85.10;;;;;;4897168;29;20043;-75
2022/09/26 05:13:28;;;;;;;1.83;0.77;;;11.50;85.10;;;;;;4897213;29;20053;-75
2022/09/26 05:15:54;;;;;;;0.60;0.60;;;11.50;85.10;;;;;;4897046;29;20037;-75
2022/09/26 05:18:22;;;;;;;0.70;0.60;;;11.50;85.10;;;;;;4897361;29;20198;-76
2022/09/26 05:20:49;;;;;;;1.48;0.50;;;11.40;85.00;;;;;;4896988;29;20389;-76
2022/09/26 05:28:42;;;;;;;0.52;0.50;;;11.40;85.30;;;;;;4896752;29;20055;-74
2022/09/26 05:31:08;;;;;;;0.77;0.68;;;11.30;86.00;;;;;;4896834;29;20029;-76
2022/09/26 05:33:37;;;;;;;0.80;0.75;;;11.30;85.50;;;;;;4897046;29;20042;-76
2022/09/26 05:36:04;;;;;;;1.38;0.70;;;11.20;85.60;;;;;;4896439;29;20083;-76
2022/09/26 05:38:30;;;;;;;1.00;0.60;;;11.20;85.60;;;;;;4879800;29;20484;-76
2022/09/26 05:40:55;;;;;;;0.90;0.60;;;11.20;85.70;;;;;;4858775;29;20120;-76
2022/09/26 05:43:23;;;;;;;0.60;0.50;;;11.20;85.70;;;;;;4896350;29;20387;-75
2022/09/26 05:45:49;;;;;;;1.73;0.70;;;11.20;85.70;;;;;;4896183;29;20045;-75
2022/09/26 05:48:16;;;;;;;1.85;0.70;;;11.20;85.70;;;;;;4896532;29;20127;-76
2022/09/26 05:50:42;;;;;;;1.05;0.70;;;11.20;85.70;;;;;;4880068;29;20119;-75
2022/09/26 05:53:09;;;;;;;1.48;0.60;;;11.20;85.70;;;;;;4879704;29;20037;-78
2022/09/26 05:55:36;;;;;;;1.08;0.80;;;11.20;85.60;;;;;;4896614;29;20492;-75
2022/09/26 05:58:04;;;;;;;2.47;0.75;;;11.20;85.70;;;;;;4896569;29;20107;-75
2022/09/26 06:00:30;;;;;;;0.80;0.65;;;11.20;85.60;;;;;;4880365;29;20480;-75
2022/09/26 06:02:58;;;;;;;1.27;0.68;;;11.30;85.60;;;;;;4895118;29;20039;-75
2022/09/26 06:05:24;;;;;;;1.38;0.82;;;11.20;85.60;;;;;;4896457;29;20060;-75
2022/09/26 06:07:51;;;;;;;1.60;0.73;;;11.30;85.50;;;;;;4895958;29;20037;-75
2022/09/26 06:10:18;;;;;;;0.65;0.65;;;11.20;85.50;;;;;;4895967;29;20514;-77
2022/09/26 06:12:45;;;;;;;1.63;0.73;;;11.30;85.50;;;;;;4896302;29;20040;-77
2022/09/26 06:15:11;;;;;;;1.70;0.70;;;11.30;85.50;;;;;;4896265;29;20531;-77
2022/09/26 06:17:37;;;;;;;1.23;0.60;;;11.30;85.50;;;;;;4895811;29;20033;-76
2022/09/26 06:20:04;;;;;;;1.23;0.77;;;11.30;85.50;;;;;;4878820;29;20105;-75
2022/09/26 06:22:32;;;;;;;1.15;0.63;;;11.20;85.40;;;;;;4895680;29;20045;-77
2022/09/26 06:24:59;;;;;;;0.85;0.60;;;11.20;85.50;;;;;;4895928;29;20076;-75
2022/09/26 06:27:24;;;;;;;1.30;0.55;;;11.20;85.50;;;;;;4895685;29;20484;-76
2022/09/26 06:29:50;;;;;;;0.65;0.60;;;11.20;85.60;;;;;;4896030;29;20067;-76
2022/09/26 06:32:16;;;;;;;0.47;0.45;;;11.20;85.50;;;;;;4870912;29;20064;-76
2022/09/26 06:34:42;;;;;;;1.90;1.00;;;11.20;85.60;;;;;;4879212;29;20064;-75
2022/09/26 06:37:08;;;;;;;1.05;0.90;;;11.30;85.60;;;;;;4896282;29;20037;-76
2022/09/26 06:39:35;;;;;;;1.25;0.50;;;11.30;85.60;;;;;;4863820;29;20045;-75
2022/09/26 06:42:06;;;;;;;1.23;0.80;;;11.30;85.90;;;;;;4879441;29;20084;-74
2022/09/26 06:44:32;;;;;;;1.83;0.80;;;11.30;85.60;;;;;;4821776;29;20130;-76
2022/09/26 06:51:31;;;;;;;0.90;0.70;;;11.30;85.50;;;;;;4853934;29;20060;-76
2022/09/26 07:01:42;;;;;;;0.75;0.68;;;11.50;85.20;;;;;;4764712;30;20112;-77
2022/09/26 07:04:08;;;;;;;0.90;0.60;;;11.50;85.10;;;;;;4765076;30;20062;-76
2022/09/26 07:06:53;;;;;;;1.42;0.70;;;11.50;85.00;;;;;;4746425;30;20048;-77
2022/09/26 07:09:57;;;;;;;0.73;0.70;;;11.50;85.00;;;;;;4745410;30;20075;-78
2022/09/26 07:29:27;;;;;;;1.27;0.80;;;11.60;85.10;;;;;;4593877;31;20206;-78
2022/09/26 07:31:53;;;;;;;2.53;0.90;;;11.60;85.00;;;;;;4595385;31;20127;-77
2022/09/26 07:50:59;;;;;;;1.63;0.88;;;11.80;84.80;;;;;;4558761;31;20068;-77
2022/09/26 07:53:30;;;;;;;1.20;0.85;;;11.70;84.70;;;;;;4563751;31;20061;-76
2022/09/26 07:58:38;;;;;;;1.02;0.75;;;11.80;84.60;;;;;;4561682;31;19920;-77
2022/09/26 08:01:06;;;;;;;1.65;0.70;;;11.90;84.60;;;;;;4562391;31;20041;-76
2022/09/26 08:03:33;;;;;;;1.65;1.00;;;11.90;84.60;;;;;;4579808;31;20056;-77
2022/09/26 08:06:01;;;;;;;1.48;0.70;;;11.90;84.50;;;;;;4592855;31;20128;-79
2022/09/26 08:14:49;;;;;;;1.70;0.85;;;11.90;84.60;;;;;;4628023;31;20155;-76
2022/09/26 08:17:38;;;;;;;1.70;0.90;;;11.90;84.50;;;;;;4627213;31;20104;-77
2022/09/26 08:23:41;;;;;;;1.27;0.80;;;12.00;84.60;;;;;;4748087;30;20583;-75
2022/09/26 08:26:37;;;;;;;1.10;0.80;;;12.00;84.50;;;;;;4736754;30;20139;-76
2022/09/26 08:29:10;;;;;;;1.05;0.70;;;12.00;84.50;;;;;;4714547;30;20097;-77
2022/09/26 08:31:57;;;;;;;1.30;0.90;;;12.00;84.60;;;;;;4700281;30;20128;-77
2022/09/26 08:34:22;;;;;;;1.15;0.70;;;12.10;84.60;;;;;;4686320;30;20167;-76
2022/09/26 08:36:56;;;;;;;1.45;0.77;;;12.00;84.60;;;;;;4713095;30;20072;-76
2022/09/26 08:39:23;;;;;;;1.70;0.75;;;12.00;84.60;;;;;;4683424;30;20061;-76
2022/09/26 08:42:05;;;;;;;0.93;0.70;;;12.10;84.60;;;;;;4701548;30;20094;-77
2022/09/26 08:45:11;;;;;;;2.30;1.10;;;12.10;84.60;;;;;;4713929;30;20072;-77
2022/09/26 08:51:57;;;;;;;1.13;0.70;;;12.20;84.50;;;;;;4688511;30;20505;-77
2022/09/26 08:54:56;;;;;;;1.10;0.70;;;12.30;84.40;;;;;;4699625;30;20114;-76
2022/09/26 09:15:06;;;;;;;0.65;0.65;;;12.20;84.40;;;;;;4592597;31;20055;-77
2022/09/26 09:17:55;;;;;;;3.08;1.17;;;12.30;84.50;;;;;;4594435;31;20555;-76
2022/09/26 09:37:58;;;;;;;1.13;0.90;;;12.30;84.90;;;;;;4610293;31;20051;-75
2022/09/26 09:40:32;;;;;;;1.15;0.68;;;12.30;85.10;;;;;;4596677;31;20465;-76
2022/09/26 09:43:04;;;;;;;1.73;0.80;;;12.30;85.20;;;;;;4544621;31;20093;-75
2022/09/26 09:45:49;;;;;;;2.08;0.90;;;12.30;85.30;;;;;;4543307;31;20102;-76
2022/09/26 09:48:15;;;;;;;1.88;1.00;;;12.40;85.50;;;;;;4562338;31;20596;-76
2022/09/26 09:55:09;;;;;;;0.93;0.73;;;12.30;85.50;;;;;;4649735;30;20801;-77
2022/09/26 09:58:00;;;;;;;1.50;0.70;;;12.30;85.50;;;;;;4653618;30;20109;-76
2022/09/26 10:55:13;;;;;;;1.50;0.90;;;12.20;87.40;;;;;;5843066;23;20094;-77
2022/09/26 10:57:47;;;;;;;1.23;0.80;;;12.10;87.50;;;;;;4881208;29;20726;-77
2022/09/26 11:57:10;;;;;;;0.77;0.60;;;12.20;88.60;;;;;;4690523;30;20521;-75
2022/09/26 12:07:11;;;;;;;1.08;0.75;;;12.20;88.60;;;;;;4681593;30;20518;-76
2022/09/26 12:35:27;;;;;;;1.63;0.70;;;12.20;88.90;;;;;;4790568;29;20044;-76
2022/09/26 12:38:31;;;;;;;1.02;0.77;;;12.30;89.00;;;;;;4801572;29;20054;-76
2022/09/26 12:41:31;;;;;;;1.00;0.60;;;12.30;89.20;;;;;;4763138;30;20044;-75
2022/09/26 12:44:20;;;;;;;1.67;0.75;;;12.30;89.20;;;;;;4773799;30;20055;-75
2022/09/26 12:47:14;;;;;;;0.50;0.50;;;12.30;89.20;;;;;;4744413;30;20086;-76
2022/09/26 12:57:28;;;;;;;0.88;0.55;;;12.40;89.40;;;;;;4770613;30;20105;-79
2022/09/26 13:00:15;;;;;;;0.88;0.70;;;12.30;89.30;;;;;;4746928;30;20032;-76
2022/09/26 13:03:15;;;;;;;0.75;0.60;;;12.30;89.40;;;;;;4724188;30;20049;-78
2022/09/26 13:06:17;;;;;;;0.98;0.65;;;12.40;89.50;;;;;;4739733;30;20071;-77
2022/09/26 13:12:45;;;;;;;0.30;0.30;;;12.40;89.60;;;;;;4766954;30;20051;-79
2022/09/26 13:15:46;;;;;;;0.77;0.45;;;12.30;89.60;;;;;;4678992;30;20066;-81
2022/09/26 13:25:51;;;;;;;1.08;0.43;;;12.30;89.80;;;;;;4694147;30;20076;-77
2022/09/26 13:38:50;;;;;;;0.30;0.30;;;12.40;89.80;;;;;;4643433;30;20062;-77
2022/09/26 14:04:26;;;;;;;0.35;0.32;;;12.50;90.00;;;;;;4735196;30;20148;-79
2022/09/26 14:10:57;;;;;;;0.75;0.65;;;12.40;90.00;;;;;;4721221;30;20132;-78
2022/09/26 14:32:46;;;;;;;1.52;0.70;;;12.50;90.10;;;;;;4694155;30;20067;-77
2022/09/26 14:46:09;;;;;;;0.30;0.30;;;12.50;90.10;;;;;;4755470;30;20044;-80
2022/09/26 15:50:59;;;;;;;0.30;0.30;;;12.70;90.30;;;;;;4713193;30;20122;-77
2022/09/26 16:00:45;;;;;;;0.55;0.40;;;12.70;90.30;;;;;;4682181;30;20057;-78
2022/09/26 16:04:02;;;;;;;0.47;0.38;;;12.70;90.30;;;;;;4692826;30;20042;-78
2022/09/26 16:06:35;;;;;;;0.80;0.60;;;12.70;90.30;;;;;;4733006;30;20115;-79
2022/09/26 16:09:17;;;;;;;0.60;0.52;;;12.70;90.30;;;;;;4736786;30;20048;-78
2022/09/26 16:11:51;;;;;;;0.38;0.38;;;12.70;90.40;;;;;;4738927;30;20064;-78
2022/09/26 16:14:41;;;;;;;0.43;0.38;;;12.70;90.40;;;;;;4739553;30;20041;-79
2022/09/26 16:17:26;;;;;;;0.20;0.20;;;12.70;90.40;;;;;;4735958;30;20049;-79
2022/09/26 16:19:55;;;;;;;0.30;0.30;;;12.60;90.40;;;;;;4778745;30;20088;-80
2022/09/26 16:22:39;;;;;;;0.30;0.30;;;12.70;90.50;;;;;;4760399;30;20099;-80
2022/09/26 16:25:36;;;;;;;0.60;0.43;;;12.70;90.50;;;;;;4779861;30;20048;-80
2022/09/26 16:28:20;;;;;;;0.20;0.20;;;12.60;90.50;;;;;;4740242;30;20151;-80
2022/09/26 16:31:09;;;;;;;0.22;0.22;;;12.70;90.60;;;;;;4855480;29;20056;-80
2022/09/26 16:33:38;;;;;;;0.20;0.20;;;12.70;90.60;;;;;;4906149;29;20032;-80
2022/09/26 16:36:16;;;;;;;0.38;0.38;;;12.70;90.60;;;;;;4909642;29;20053;-80
2022/09/26 16:38:48;;;;;;;0.40;0.40;;;12.60;90.60;;;;;;4865854;29;20128;-80
2022/09/26 16:41:28;;;;;;;0.30;0.30;;;12.70;90.60;;;;;;4836860;29;20113;-80
2022/09/26 16:44:00;;;;;;;0.40;0.40;;;12.70;90.60;;;;;;4837726;29;20392;-79
2022/09/26 16:46:30;;;;;;;0.30;0.30;;;12.70;90.60;;;;;;4863222;29;20057;-79
2022/09/26 16:48:58;;;;;;;0.32;0.32;;;12.70;90.60;;;;;;4850670;29;20843;-79
2022/09/26 16:51:29;;;;;;;0.40;0.40;;;12.70;90.60;;;;;;4848821;29;20045;-79
2022/09/26 16:54:04;;;;;;;;;;;12.70;90.60;;;;;;4870184;29;20150;-78
2022/09/26 16:56:31;;;;;;;0.30;0.30;;;12.70;90.60;;;;;;4872346;29;19920;-78
2022/09/26 16:59:01;;;;;;;0.40;0.38;;;12.60;90.60;;;;;;4873613;29;20057;-79
2022/09/26 17:04:16;;;;;;;0.30;0.30;;;12.70;90.60;;;;;;4866929;29;20078;-79
2022/09/26 17:06:42;;;;;;;0.45;0.45;;;12.60;90.60;;;;;;4869312;29;20042;-79
2022/09/26 17:09:15;;;;;;;0.40;0.40;;;12.60;90.60;;;;;;4868950;29;20855;-78
2022/09/26 17:11:42;;;;;;;0.40;0.40;;;12.60;90.70;;;;;;4884569;29;20038;-79
2022/09/26 17:14:11;;;;;;;0.40;0.40;;;12.60;90.70;;;;;;4881186;29;20065;-78
2022/09/26 17:16:37;;;;;;;0.40;0.40;;;12.60;90.70;;;;;;4878780;29;20525;-78
2022/09/26 23:47:07;;;;;;;0.98;0.20;;;10.70;91.20;;;;;;4021866;23;20048;-78
2022/09/26 23:49:33;;;;;;;0.20;0.10;;;10.60;91.20;;;;;;4813683;29;20058;-80
2022/09/26 23:52:02;;;;;;;0.60;0.13;;;10.70;91.30;;;;;;4791823;29;20054;-80
2022/09/26 23:54:28;;;;;;;0.57;0.30;;;10.70;91.30;;;;;;4821764;29;20191;-79
2022/09/26 23:56:53;;;;;;;0.20;0.10;;;10.60;91.20;;;;;;4808596;29;20055;-79
2022/09/26 23:59:19;;;;;;;0.20;0.20;;;10.60;91.30;;;;;;4821796;29;20410;-77
